sensor_id;sensor_type;location;lat;lon;timestamp;temperature;humidity
46356;DHT22;32066;49.474;11.106;2022-10-16T00:01:09;16.70;99.90
46356;DHT22;32066;49.474;11.106;2022-10-16T00:03:37;16.70;99.90
46356;DHT22;32066;49.474;11.106;2022-10-16T00:06:05;16.80;99.90
46356;DHT22;32066;49.474;11.106;2022-10-16T00:08:32;16.80;99.90
46356;DHT22;32066;49.474;11.106;2022-10-16T00:11:00;16.80;99.90
46356;DHT22;32066;49.474;11.106;2022-10-16T00:13:28;16.90;99.90
46356;DHT22;32066;49.474;11.106;2022-10-16T00:15:56;16.80;99.90
46356;DHT22;32066;49.474;11.106;2022-10-16T00:18:25;16.80;99.90
46356;DHT22;32066;49.474;11.106;2022-10-16T00:20:51;16.80;99.90
46356;DHT22;32066;49.474;11.106;2022-10-16T00:23:18;16.80;99.90
46356;DHT22;32066;49.474;11.106;2022-10-16T00:25:54;16.90;99.90
46356;DHT22;32066;49.474;11.106;2022-10-16T00:28:22;16.80;99.90
46356;DHT22;32066;49.474;11.106;2022-10-16T00:30:49;16.80;99.90
46356;DHT22;32066;49.474;11.106;2022-10-16T00:33:16;16.80;99.90
46356;DHT22;32066;49.474;11.106;2022-10-16T00:35:44;16.80;99.90
46356;DHT22;32066;49.474;11.106;2022-10-16T00:38:11;16.80;99.90
46356;DHT22;32066;49.474;11.106;2022-10-16T00:40:38;16.90;99.90
46356;DHT22;32066;49.474;11.106;2022-10-16T00:43:11;16.80;99.90
46356;DHT22;32066;49.474;11.106;2022-10-16T00:45:38;16.80;99.90
46356;DHT22;32066;49.474;11.106;2022-10-16T00:48:10;16.80;99.90
46356;DHT22;32066;49.474;11.106;2022-10-16T00:50:39;16.80;99.90
46356;DHT22;32066;49.474;11.106;2022-10-16T00:53:10;16.70;99.90
46356;DHT22;32066;49.474;11.106;2022-10-16T00:55:37;16.70;99.90
46356;DHT22;32066;49.474;11.106;2022-10-16T00:58:04;16.70;99.90
46356;DHT22;32066;49.474;11.106;2022-10-16T01:00:32;16.70;99.90
46356;DHT22;32066;49.474;11.106;2022-10-16T01:03:00;16.70;99.90
46356;DHT22;32066;49.474;11.106;2022-10-16T01:05:32;16.60;99.90
46356;DHT22;32066;49.474;11.106;2022-10-16T01:08:08;16.60;99.90
46356;DHT22;32066;49.474;11.106;2022-10-16T01:10:40;16.60;99.90
46356;DHT22;32066;49.474;11.106;2022-10-16T01:13:11;16.70;99.90
46356;DHT22;32066;49.474;11.106;2022-10-16T01:15:43;16.60;99.90
46356;DHT22;32066;49.474;11.106;2022-10-16T01:18:16;16.70;99.90
46356;DHT22;32066;49.474;11.106;2022-10-16T01:20:46;16.60;99.90
46356;DHT22;32066;49.474;11.106;2022-10-16T01:23:21;16.70;99.90
46356;DHT22;32066;49.474;11.106;2022-10-16T01:26:04;16.50;99.90
46356;DHT22;32066;49.474;11.106;2022-10-16T01:28:41;16.50;99.90
46356;DHT22;32066;49.474;11.106;2022-10-16T01:31:11;16.50;99.90
46356;DHT22;32066;49.474;11.106;2022-10-16T01:33:43;16.60;99.90
46356;DHT22;32066;49.474;11.106;2022-10-16T01:36:14;16.60;99.90
46356;DHT22;32066;49.474;11.106;2022-10-16T01:38:44;16.60;99.90
46356;DHT22;32066;49.474;11.106;2022-10-16T01:41:16;16.60;99.90
46356;DHT22;32066;49.474;11.106;2022-10-16T01:43:48;16.50;99.90
46356;DHT22;32066;49.474;11.106;2022-10-16T01:46:18;16.50;99.90
46356;DHT22;32066;49.474;11.106;2022-10-16T01:48:47;16.40;99.90
46356;DHT22;32066;49.474;11.106;2022-10-16T01:51:16;16.50;99.90
46356;DHT22;32066;49.474;11.106;2022-10-16T01:53:48;16.50;99.90
46356;DHT22;32066;49.474;11.106;2022-10-16T01:56:17;16.50;99.90
46356;DHT22;32066;49.474;11.106;2022-10-16T01:58:50;16.60;99.90
46356;DHT22;32066;49.474;11.106;2022-10-16T02:01:22;16.50;99.90
46356;DHT22;32066;49.474;11.106;2022-10-16T02:03:52;16.50;99.90
46356;DHT22;32066;49.474;11.106;2022-10-16T02:06:20;16.50;99.90
46356;DHT22;32066;49.474;11.106;2022-10-16T02:08:47;16.60;99.90
46356;DHT22;32066;49.474;11.106;2022-10-16T02:11:14;16.50;99.90
46356;DHT22;32066;49.474;11.106;2022-10-16T02:13:45;16.50;99.90
46356;DHT22;32066;49.474;11.106;2022-10-16T02:16:15;16.60;99.90
46356;DHT22;32066;49.474;11.106;2022-10-16T02:18:42;16.60;99.90
46356;DHT22;32066;49.474;11.106;2022-10-16T02:21:14;16.50;99.90
46356;DHT22;32066;49.474;11.106;2022-10-16T02:23:47;16.60;99.90
46356;DHT22;32066;49.474;11.106;2022-10-16T02:26:19;16.60;99.90
46356;DHT22;32066;49.474;11.106;2022-10-16T02:28:54;16.60;99.90
46356;DHT22;32066;49.474;11.106;2022-10-16T02:31:28;16.60;99.90
46356;DHT22;32066;49.474;11.106;2022-10-16T02:34:00;16.70;99.90
46356;DHT22;32066;49.474;11.106;2022-10-16T02:36:29;16.70;99.90
46356;DHT22;32066;49.474;11.106;2022-10-16T02:38:56;16.70;99.90
46356;DHT22;32066;49.474;11.106;2022-10-16T02:41:23;16.70;99.90
46356;DHT22;32066;49.474;11.106;2022-10-16T02:43:50;16.60;99.90
46356;DHT22;32066;49.474;11.106;2022-10-16T02:46:17;16.60;99.90
46356;DHT22;32066;49.474;11.106;2022-10-16T02:48:46;16.50;99.90
46356;DHT22;32066;49.474;11.106;2022-10-16T02:51:13;16.50;99.90
46356;DHT22;32066;49.474;11.106;2022-10-16T02:53:40;16.60;99.90
46356;DHT22;32066;49.474;11.106;2022-10-16T02:56:07;16.60;99.90
46356;DHT22;32066;49.474;11.106;2022-10-16T02:58:34;16.60;99.90
46356;DHT22;32066;49.474;11.106;2022-10-16T03:01:01;16.60;99.90
46356;DHT22;32066;49.474;11.106;2022-10-16T03:03:27;16.60;99.90
46356;DHT22;32066;49.474;11.106;2022-10-16T03:05:55;16.70;99.90
46356;DHT22;32066;49.474;11.106;2022-10-16T03:08:22;16.60;99.90
46356;DHT22;32066;49.474;11.106;2022-10-16T03:10:51;16.50;99.90
46356;DHT22;32066;49.474;11.106;2022-10-16T03:13:18;16.50;99.90
46356;DHT22;32066;49.474;11.106;2022-10-16T03:15:46;16.50;99.90
46356;DHT22;32066;49.474;11.106;2022-10-16T03:18:13;16.50;99.90
46356;DHT22;32066;49.474;11.106;2022-10-16T03:20:42;16.60;99.90
46356;DHT22;32066;49.474;11.106;2022-10-16T03:23:10;16.60;99.90
46356;DHT22;32066;49.474;11.106;2022-10-16T03:25:37;16.60;99.90
46356;DHT22;32066;49.474;11.106;2022-10-16T03:28:04;16.50;99.90
46356;DHT22;32066;49.474;11.106;2022-10-16T03:30:31;16.60;99.90
46356;DHT22;32066;49.474;11.106;2022-10-16T03:32:58;16.60;99.90
46356;DHT22;32066;49.474;11.106;2022-10-16T03:35:25;16.60;99.90
46356;DHT22;32066;49.474;11.106;2022-10-16T03:37:52;16.60;99.90
46356;DHT22;32066;49.474;11.106;2022-10-16T03:40:20;16.60;99.90
46356;DHT22;32066;49.474;11.106;2022-10-16T03:42:47;16.60;99.90
46356;DHT22;32066;49.474;11.106;2022-10-16T03:45:14;16.60;99.90
46356;DHT22;32066;49.474;11.106;2022-10-16T03:47:41;16.60;99.90
46356;DHT22;32066;49.474;11.106;2022-10-16T03:50:08;16.60;99.90
46356;DHT22;32066;49.474;11.106;2022-10-16T03:52:35;16.60;99.90
46356;DHT22;32066;49.474;11.106;2022-10-16T03:55:02;16.60;99.90
46356;DHT22;32066;49.474;11.106;2022-10-16T03:57:30;16.60;99.90
46356;DHT22;32066;49.474;11.106;2022-10-16T03:59:56;16.60;99.90
46356;DHT22;32066;49.474;11.106;2022-10-16T04:02:23;16.50;99.90
46356;DHT22;32066;49.474;11.106;2022-10-16T04:04:50;16.60;99.90
46356;DHT22;32066;49.474;11.106;2022-10-16T04:07:17;16.50;99.90
46356;DHT22;32066;49.474;11.106;2022-10-16T04:09:44;16.60;99.90
46356;DHT22;32066;49.474;11.106;2022-10-16T04:12:10;16.60;99.90
46356;DHT22;32066;49.474;11.106;2022-10-16T04:14:39;16.50;99.90
46356;DHT22;32066;49.474;11.106;2022-10-16T04:17:05;16.50;99.90
46356;DHT22;32066;49.474;11.106;2022-10-16T04:19:32;16.50;99.90
46356;DHT22;32066;49.474;11.106;2022-10-16T04:21:59;16.40;99.90
46356;DHT22;32066;49.474;11.106;2022-10-16T04:24:26;16.40;99.90
46356;DHT22;32066;49.474;11.106;2022-10-16T04:26:53;16.40;99.90
46356;DHT22;32066;49.474;11.106;2022-10-16T04:29:19;16.30;99.90
46356;DHT22;32066;49.474;11.106;2022-10-16T04:31:48;16.40;99.90
46356;DHT22;32066;49.474;11.106;2022-10-16T04:34:15;16.30;99.90
46356;DHT22;32066;49.474;11.106;2022-10-16T04:36:41;16.30;99.90
46356;DHT22;32066;49.474;11.106;2022-10-16T04:39:08;16.30;99.90
46356;DHT22;32066;49.474;11.106;2022-10-16T04:41:35;16.40;99.90
46356;DHT22;32066;49.474;11.106;2022-10-16T04:44:02;16.40;99.90
46356;DHT22;32066;49.474;11.106;2022-10-16T04:46:28;16.50;99.90
46356;DHT22;32066;49.474;11.106;2022-10-16T04:48:57;16.40;99.90
46356;DHT22;32066;49.474;11.106;2022-10-16T04:51:24;16.40;99.90
46356;DHT22;32066;49.474;11.106;2022-10-16T04:53:51;16.50;99.90
46356;DHT22;32066;49.474;11.106;2022-10-16T04:56:18;16.40;99.90
46356;DHT22;32066;49.474;11.106;2022-10-16T04:58:45;16.50;99.90
46356;DHT22;32066;49.474;11.106;2022-10-16T05:01:12;16.50;99.90
46356;DHT22;32066;49.474;11.106;2022-10-16T05:03:38;16.50;99.90
46356;DHT22;32066;49.474;11.106;2022-10-16T05:06:07;16.50;99.90
46356;DHT22;32066;49.474;11.106;2022-10-16T05:08:34;16.50;99.90
46356;DHT22;32066;49.474;11.106;2022-10-16T05:11:01;16.50;99.90
46356;DHT22;32066;49.474;11.106;2022-10-16T05:13:28;16.50;99.90
46356;DHT22;32066;49.474;11.106;2022-10-16T05:15:54;16.50;99.90
46356;DHT22;32066;49.474;11.106;2022-10-16T05:18:22;16.50;99.90
46356;DHT22;32066;49.474;11.106;2022-10-16T05:20:49;16.40;99.90
46356;DHT22;32066;49.474;11.106;2022-10-16T05:23:17;16.40;99.90
46356;DHT22;32066;49.474;11.106;2022-10-16T05:25:52;16.40;99.90
46356;DHT22;32066;49.474;11.106;2022-10-16T05:28:20;16.30;99.90
46356;DHT22;32066;49.474;11.106;2022-10-16T05:30:47;16.30;99.90
46356;DHT22;32066;49.474;11.106;2022-10-16T05:33:14;16.40;99.90
46356;DHT22;32066;49.474;11.106;2022-10-16T05:35:41;16.30;99.90
46356;DHT22;32066;49.474;11.106;2022-10-16T05:38:08;16.30;99.90
46356;DHT22;32066;49.474;11.106;2022-10-16T05:40:36;16.30;99.90
46356;DHT22;32066;49.474;11.106;2022-10-16T05:43:03;16.30;99.90
46356;DHT22;32066;49.474;11.106;2022-10-16T05:45:30;16.20;99.90
46356;DHT22;32066;49.474;11.106;2022-10-16T05:47:57;16.20;99.90
46356;DHT22;32066;49.474;11.106;2022-10-16T05:50:24;16.20;99.90
46356;DHT22;32066;49.474;11.106;2022-10-16T05:52:50;16.20;99.90
46356;DHT22;32066;49.474;11.106;2022-10-16T05:55:17;16.20;99.90
46356;DHT22;32066;49.474;11.106;2022-10-16T05:57:46;16.20;99.90
46356;DHT22;32066;49.474;11.106;2022-10-16T06:00:12;16.20;99.90
46356;DHT22;32066;49.474;11.106;2022-10-16T06:02:39;16.20;99.90
46356;DHT22;32066;49.474;11.106;2022-10-16T06:05:06;16.30;99.90
46356;DHT22;32066;49.474;11.106;2022-10-16T06:07:34;16.30;99.90
46356;DHT22;32066;49.474;11.106;2022-10-16T06:10:02;16.20;99.90
46356;DHT22;32066;49.474;11.106;2022-10-16T06:12:30;16.20;99.90
46356;DHT22;32066;49.474;11.106;2022-10-16T06:14:58;16.20;99.90
46356;DHT22;32066;49.474;11.106;2022-10-16T06:17:25;16.20;99.90
46356;DHT22;32066;49.474;11.106;2022-10-16T06:19:52;16.20;99.90
46356;DHT22;32066;49.474;11.106;2022-10-16T06:22:19;16.20;99.90
46356;DHT22;32066;49.474;11.106;2022-10-16T06:24:45;16.30;99.90
46356;DHT22;32066;49.474;11.106;2022-10-16T06:27:13;16.30;99.90
46356;DHT22;32066;49.474;11.106;2022-10-16T06:29:39;16.40;99.90
46356;DHT22;32066;49.474;11.106;2022-10-16T06:32:09;16.40;99.90
46356;DHT22;32066;49.474;11.106;2022-10-16T06:34:36;16.40;99.90
46356;DHT22;32066;49.474;11.106;2022-10-16T06:37:05;16.40;99.90
46356;DHT22;32066;49.474;11.106;2022-10-16T06:39:32;16.50;99.90
46356;DHT22;32066;49.474;11.106;2022-10-16T06:41:59;16.50;99.90
46356;DHT22;32066;49.474;11.106;2022-10-16T06:44:32;16.50;99.90
46356;DHT22;32066;49.474;11.106;2022-10-16T06:46:59;16.60;99.90
46356;DHT22;32066;49.474;11.106;2022-10-16T06:49:27;16.70;99.90
46356;DHT22;32066;49.474;11.106;2022-10-16T06:51:54;16.70;99.90
46356;DHT22;32066;49.474;11.106;2022-10-16T06:54:21;16.90;99.90
46356;DHT22;32066;49.474;11.106;2022-10-16T06:56:48;16.90;99.90
46356;DHT22;32066;49.474;11.106;2022-10-16T06:59:15;17.00;99.90
46356;DHT22;32066;49.474;11.106;2022-10-16T07:01:41;16.90;99.90
46356;DHT22;32066;49.474;11.106;2022-10-16T07:04:08;16.90;99.90
46356;DHT22;32066;49.474;11.106;2022-10-16T07:06:36;16.80;99.90
46356;DHT22;32066;49.474;11.106;2022-10-16T07:09:05;16.80;99.90
46356;DHT22;32066;49.474;11.106;2022-10-16T07:11:33;16.80;99.90
46356;DHT22;32066;49.474;11.106;2022-10-16T07:14:00;16.80;99.90
46356;DHT22;32066;49.474;11.106;2022-10-16T07:16:28;16.80;99.90
46356;DHT22;32066;49.474;11.106;2022-10-16T07:18:55;16.80;99.90
46356;DHT22;32066;49.474;11.106;2022-10-16T07:21:24;16.90;99.90
46356;DHT22;32066;49.474;11.106;2022-10-16T07:23:54;16.90;99.90
46356;DHT22;32066;49.474;11.106;2022-10-16T07:26:21;16.90;99.90
46356;DHT22;32066;49.474;11.106;2022-10-16T07:28:48;16.90;99.90
46356;DHT22;32066;49.474;11.106;2022-10-16T07:31:17;17.00;99.90
46356;DHT22;32066;49.474;11.106;2022-10-16T07:33:45;16.80;99.90
46356;DHT22;32066;49.474;11.106;2022-10-16T07:36:14;16.80;99.90
46356;DHT22;32066;49.474;11.106;2022-10-16T07:38:41;16.80;99.90
46356;DHT22;32066;49.474;11.106;2022-10-16T07:41:12;16.90;99.90
46356;DHT22;32066;49.474;11.106;2022-10-16T07:43:40;16.90;99.90
46356;DHT22;32066;49.474;11.106;2022-10-16T07:46:07;16.90;99.90
46356;DHT22;32066;49.474;11.106;2022-10-16T07:48:34;17.00;99.90
46356;DHT22;32066;49.474;11.106;2022-10-16T07:51:02;17.00;99.90
46356;DHT22;32066;49.474;11.106;2022-10-16T07:53:30;17.00;99.90
46356;DHT22;32066;49.474;11.106;2022-10-16T07:55:57;17.10;99.90
46356;DHT22;32066;49.474;11.106;2022-10-16T07:58:26;17.10;99.90
46356;DHT22;32066;49.474;11.106;2022-10-16T08:00:53;17.10;99.90
46356;DHT22;32066;49.474;11.106;2022-10-16T08:03:20;17.20;99.90
46356;DHT22;32066;49.474;11.106;2022-10-16T08:05:47;17.20;99.90
46356;DHT22;32066;49.474;11.106;2022-10-16T08:08:15;17.20;99.90
46356;DHT22;32066;49.474;11.106;2022-10-16T08:10:43;17.30;99.90
46356;DHT22;32066;49.474;11.106;2022-10-16T08:13:10;17.30;99.90
46356;DHT22;32066;49.474;11.106;2022-10-16T08:15:39;17.30;99.90
46356;DHT22;32066;49.474;11.106;2022-10-16T08:18:06;17.30;99.90
46356;DHT22;32066;49.474;11.106;2022-10-16T08:20:33;17.40;99.90
46356;DHT22;32066;49.474;11.106;2022-10-16T08:23:00;17.30;99.90
46356;DHT22;32066;49.474;11.106;2022-10-16T08:25:27;17.30;99.90
46356;DHT22;32066;49.474;11.106;2022-10-16T08:27:54;17.30;99.90
46356;DHT22;32066;49.474;11.106;2022-10-16T08:30:22;17.40;99.90
46356;DHT22;32066;49.474;11.106;2022-10-16T08:32:51;17.40;99.90
46356;DHT22;32066;49.474;11.106;2022-10-16T08:35:18;17.40;99.90
46356;DHT22;32066;49.474;11.106;2022-10-16T08:37:45;17.50;99.90
46356;DHT22;32066;49.474;11.106;2022-10-16T08:40:19;17.50;99.90
46356;DHT22;32066;49.474;11.106;2022-10-16T08:43:04;17.60;99.90
46356;DHT22;32066;49.474;11.106;2022-10-16T08:45:34;17.60;99.90
46356;DHT22;32066;49.474;11.106;2022-10-16T08:48:13;17.70;99.90
46356;DHT22;32066;49.474;11.106;2022-10-16T08:50:41;17.70;99.90
46356;DHT22;32066;49.474;11.106;2022-10-16T08:53:15;17.70;99.90
46356;DHT22;32066;49.474;11.106;2022-10-16T08:55:45;17.80;99.90
46356;DHT22;32066;49.474;11.106;2022-10-16T08:58:14;17.80;99.90
46356;DHT22;32066;49.474;11.106;2022-10-16T09:00:43;17.90;99.90
46356;DHT22;32066;49.474;11.106;2022-10-16T09:03:20;17.80;99.90
46356;DHT22;32066;49.474;11.106;2022-10-16T09:05:57;17.80;99.90
46356;DHT22;32066;49.474;11.106;2022-10-16T09:08:32;17.80;99.90
46356;DHT22;32066;49.474;11.106;2022-10-16T09:11:10;17.90;99.90
46356;DHT22;32066;49.474;11.106;2022-10-16T09:13:46;17.90;99.90
46356;DHT22;32066;49.474;11.106;2022-10-16T09:16:18;18.00;99.90
46356;DHT22;32066;49.474;11.106;2022-10-16T09:18:54;18.00;99.90
46356;DHT22;32066;49.474;11.106;2022-10-16T09:21:26;18.10;99.90
46356;DHT22;32066;49.474;11.106;2022-10-16T09:23:54;18.20;99.90
46356;DHT22;32066;49.474;11.106;2022-10-16T09:26:23;18.20;99.90
46356;DHT22;32066;49.474;11.106;2022-10-16T09:28:52;18.20;99.90
46356;DHT22;32066;49.474;11.106;2022-10-16T09:31:21;18.20;99.90
46356;DHT22;32066;49.474;11.106;2022-10-16T09:33:52;18.20;99.90
46356;DHT22;32066;49.474;11.106;2022-10-16T09:36:21;18.30;99.90
46356;DHT22;32066;49.474;11.106;2022-10-16T09:38:49;18.30;99.90
46356;DHT22;32066;49.474;11.106;2022-10-16T09:41:18;18.20;99.90
46356;DHT22;32066;49.474;11.106;2022-10-16T09:43:52;18.30;99.90
46356;DHT22;32066;49.474;11.106;2022-10-16T09:46:25;18.20;99.90
46356;DHT22;32066;49.474;11.106;2022-10-16T09:48:55;18.20;99.90
46356;DHT22;32066;49.474;11.106;2022-10-16T09:51:25;18.20;99.90
46356;DHT22;32066;49.474;11.106;2022-10-16T09:53:56;18.20;99.80
46356;DHT22;32066;49.474;11.106;2022-10-16T09:56:25;18.20;99.90
46356;DHT22;32066;49.474;11.106;2022-10-16T09:58:54;18.10;99.90
46356;DHT22;32066;49.474;11.106;2022-10-16T10:01:23;18.00;99.90
46356;DHT22;32066;49.474;11.106;2022-10-16T10:03:50;18.10;99.80
46356;DHT22;32066;49.474;11.106;2022-10-16T10:06:29;18.10;99.90
46356;DHT22;32066;49.474;11.106;2022-10-16T10:09:04;18.00;99.90
46356;DHT22;32066;49.474;11.106;2022-10-16T10:11:52;18.10;99.90
46356;DHT22;32066;49.474;11.106;2022-10-16T10:14:28;18.20;99.90
46356;DHT22;32066;49.474;11.106;2022-10-16T10:17:11;18.20;99.90
46356;DHT22;32066;49.474;11.106;2022-10-16T10:19:39;18.30;99.90
46356;DHT22;32066;49.474;11.106;2022-10-16T10:22:17;18.40;99.90
46356;DHT22;32066;49.474;11.106;2022-10-16T10:24:53;18.50;99.90
46356;DHT22;32066;49.474;11.106;2022-10-16T10:27:21;18.60;99.90
46356;DHT22;32066;49.474;11.106;2022-10-16T10:29:56;19.00;99.90
46356;DHT22;32066;49.474;11.106;2022-10-16T10:32:31;19.30;99.90
46356;DHT22;32066;49.474;11.106;2022-10-16T10:35:07;19.40;99.90
46356;DHT22;32066;49.474;11.106;2022-10-16T10:37:51;19.60;99.90
46356;DHT22;32066;49.474;11.106;2022-10-16T10:40:30;19.70;99.90
46356;DHT22;32066;49.474;11.106;2022-10-16T10:43:06;19.80;99.90
46356;DHT22;32066;49.474;11.106;2022-10-16T10:45:42;19.70;98.90
46356;DHT22;32066;49.474;11.106;2022-10-16T10:48:38;19.60;98.60
46356;DHT22;32066;49.474;11.106;2022-10-16T10:51:13;19.60;98.20
46356;DHT22;32066;49.474;11.106;2022-10-16T10:53:48;19.40;98.40
46356;DHT22;32066;49.474;11.106;2022-10-16T10:56:30;19.40;98.10
46356;DHT22;32066;49.474;11.106;2022-10-16T10:59:15;19.50;98.40
46356;DHT22;32066;49.474;11.106;2022-10-16T11:01:50;19.60;98.20
46356;DHT22;32066;49.474;11.106;2022-10-16T11:04:41;19.50;98.30
46356;DHT22;32066;49.474;11.106;2022-10-16T11:07:15;19.50;98.40
46356;DHT22;32066;49.474;11.106;2022-10-16T11:09:47;19.50;98.10
46356;DHT22;32066;49.474;11.106;2022-10-16T11:12:18;19.50;98.20
46356;DHT22;32066;49.474;11.106;2022-10-16T11:14:50;19.50;98.30
46356;DHT22;32066;49.474;11.106;2022-10-16T11:17:25;19.50;98.30
46356;DHT22;32066;49.474;11.106;2022-10-16T11:19:56;19.60;98.50
46356;DHT22;32066;49.474;11.106;2022-10-16T11:22:28;19.60;98.30
46356;DHT22;32066;49.474;11.106;2022-10-16T11:25:02;19.60;98.10
46356;DHT22;32066;49.474;11.106;2022-10-16T11:27:37;19.60;98.00
46356;DHT22;32066;49.474;11.106;2022-10-16T11:30:12;19.70;97.90
46356;DHT22;32066;49.474;11.106;2022-10-16T11:32:50;19.70;97.90
46356;DHT22;32066;49.474;11.106;2022-10-16T11:35:21;19.80;98.00
46356;DHT22;32066;49.474;11.106;2022-10-16T11:37:50;19.80;98.00
46356;DHT22;32066;49.474;11.106;2022-10-16T11:40:25;19.80;97.60
46356;DHT22;32066;49.474;11.106;2022-10-16T11:42:57;19.90;97.70
46356;DHT22;32066;49.474;11.106;2022-10-16T11:45:30;20.00;97.50
46356;DHT22;32066;49.474;11.106;2022-10-16T11:48:04;20.00;97.40
46356;DHT22;32066;49.474;11.106;2022-10-16T11:50:38;20.10;97.60
46356;DHT22;32066;49.474;11.106;2022-10-16T11:53:13;20.20;97.50
46356;DHT22;32066;49.474;11.106;2022-10-16T11:55:44;20.30;97.50
46356;DHT22;32066;49.474;11.106;2022-10-16T11:58:19;20.40;97.20
46356;DHT22;32066;49.474;11.106;2022-10-16T12:00:55;20.50;97.10
46356;DHT22;32066;49.474;11.106;2022-10-16T12:03:29;20.50;97.00
46356;DHT22;32066;49.474;11.106;2022-10-16T12:06:11;20.60;96.90
46356;DHT22;32066;49.474;11.106;2022-10-16T12:08:40;20.70;96.50
46356;DHT22;32066;49.474;11.106;2022-10-16T12:11:22;20.80;96.30
46356;DHT22;32066;49.474;11.106;2022-10-16T12:13:49;20.90;96.20
46356;DHT22;32066;49.474;11.106;2022-10-16T12:16:23;21.10;95.80
46356;DHT22;32066;49.474;11.106;2022-10-16T12:19:03;21.10;95.00
46356;DHT22;32066;49.474;11.106;2022-10-16T12:21:36;21.00;94.90
46356;DHT22;32066;49.474;11.106;2022-10-16T12:24:04;21.10;95.30
46356;DHT22;32066;49.474;11.106;2022-10-16T12:26:34;21.40;95.40
46356;DHT22;32066;49.474;11.106;2022-10-16T12:29:14;21.50;95.30
46356;DHT22;32066;49.474;11.106;2022-10-16T12:31:46;21.90;95.50
46356;DHT22;32066;49.474;11.106;2022-10-16T12:34:20;22.20;94.70
46356;DHT22;32066;49.474;11.106;2022-10-16T12:36:49;22.40;94.40
46356;DHT22;32066;49.474;11.106;2022-10-16T12:39:21;22.80;94.00
46356;DHT22;32066;49.474;11.106;2022-10-16T12:42:00;22.90;94.50
46356;DHT22;32066;49.474;11.106;2022-10-16T12:44:32;22.90;93.30
46356;DHT22;32066;49.474;11.106;2022-10-16T12:47:00;22.80;93.00
46356;DHT22;32066;49.474;11.106;2022-10-16T12:49:34;22.80;92.40
46356;DHT22;32066;49.474;11.106;2022-10-16T12:52:02;22.70;92.90
46356;DHT22;32066;49.474;11.106;2022-10-16T12:54:31;22.90;93.00
46356;DHT22;32066;49.474;11.106;2022-10-16T12:57:26;23.20;92.80
46356;DHT22;32066;49.474;11.106;2022-10-16T13:00:01;23.50;92.30
46356;DHT22;32066;49.474;11.106;2022-10-16T13:02:42;23.50;92.00
46356;DHT22;32066;49.474;11.106;2022-10-16T13:05:26;23.60;92.40
46356;DHT22;32066;49.474;11.106;2022-10-16T13:08:05;23.70;91.80
46356;DHT22;32066;49.474;11.106;2022-10-16T13:10:40;23.80;91.80
46356;DHT22;32066;49.474;11.106;2022-10-16T13:13:35;23.80;91.20
46356;DHT22;32066;49.474;11.106;2022-10-16T13:16:13;23.90;91.80
46356;DHT22;32066;49.474;11.106;2022-10-16T13:18:56;23.90;91.90
46356;DHT22;32066;49.474;11.106;2022-10-16T13:21:33;24.10;92.10
46356;DHT22;32066;49.474;11.106;2022-10-16T13:24:11;24.40;91.20
46356;DHT22;32066;49.474;11.106;2022-10-16T13:26:46;24.60;91.50
46356;DHT22;32066;49.474;11.106;2022-10-16T13:29:17;25.00;90.10
46356;DHT22;32066;49.474;11.106;2022-10-16T13:31:45;25.10;90.00
46356;DHT22;32066;49.474;11.106;2022-10-16T13:34:15;25.20;88.00
46356;DHT22;32066;49.474;11.106;2022-10-16T13:36:45;25.10;89.50
46356;DHT22;32066;49.474;11.106;2022-10-16T13:39:13;25.30;89.20
46356;DHT22;32066;49.474;11.106;2022-10-16T13:41:43;25.30;88.40
46356;DHT22;32066;49.474;11.106;2022-10-16T13:44:15;25.30;87.00
46356;DHT22;32066;49.474;11.106;2022-10-16T13:46:45;25.10;87.90
46356;DHT22;32066;49.474;11.106;2022-10-16T13:49:14;25.10;88.90
46356;DHT22;32066;49.474;11.106;2022-10-16T13:51:53;25.10;88.40
46356;DHT22;32066;49.474;11.106;2022-10-16T13:54:20;25.20;87.50
46356;DHT22;32066;49.474;11.106;2022-10-16T13:56:47;25.40;88.70
46356;DHT22;32066;49.474;11.106;2022-10-16T13:59:24;25.60;87.90
46356;DHT22;32066;49.474;11.106;2022-10-16T14:01:54;25.80;88.40
46356;DHT22;32066;49.474;11.106;2022-10-16T14:04:22;25.90;85.70
46356;DHT22;32066;49.474;11.106;2022-10-16T14:06:50;25.70;85.40
46356;DHT22;32066;49.474;11.106;2022-10-16T14:09:22;25.80;86.30
46356;DHT22;32066;49.474;11.106;2022-10-16T14:11:53;25.80;84.30
46356;DHT22;32066;49.474;11.106;2022-10-16T14:14:22;25.90;84.40
46356;DHT22;32066;49.474;11.106;2022-10-16T14:16:48;26.10;86.70
46356;DHT22;32066;49.474;11.106;2022-10-16T14:19:20;26.30;85.90
46356;DHT22;32066;49.474;11.106;2022-10-16T14:21:48;26.50;85.50
46356;DHT22;32066;49.474;11.106;2022-10-16T14:24:25;26.70;85.30
46356;DHT22;32066;49.474;11.106;2022-10-16T14:26:53;26.90;84.10
46356;DHT22;32066;49.474;11.106;2022-10-16T14:29:23;27.00;84.30
46356;DHT22;32066;49.474;11.106;2022-10-16T14:31:57;27.10;82.90
46356;DHT22;32066;49.474;11.106;2022-10-16T14:34:30;27.10;82.00
46356;DHT22;32066;49.474;11.106;2022-10-16T14:36:59;26.90;82.40
46356;DHT22;32066;49.474;11.106;2022-10-16T14:39:30;26.90;81.60
46356;DHT22;32066;49.474;11.106;2022-10-16T14:41:57;26.80;82.00
46356;DHT22;32066;49.474;11.106;2022-10-16T14:44:29;26.60;82.60
46356;DHT22;32066;49.474;11.106;2022-10-16T14:46:58;26.40;81.90
46356;DHT22;32066;49.474;11.106;2022-10-16T14:49:25;26.20;82.40
46356;DHT22;32066;49.474;11.106;2022-10-16T14:51:55;25.90;82.00
46356;DHT22;32066;49.474;11.106;2022-10-16T14:54:22;25.70;82.40
46356;DHT22;32066;49.474;11.106;2022-10-16T14:56:51;25.50;84.00
46356;DHT22;32066;49.474;11.106;2022-10-16T14:59:23;25.50;84.20
46356;DHT22;32066;49.474;11.106;2022-10-16T15:01:51;25.30;83.30
46356;DHT22;32066;49.474;11.106;2022-10-16T15:04:18;24.90;83.40
46356;DHT22;32066;49.474;11.106;2022-10-16T15:06:45;24.80;84.50
46356;DHT22;32066;49.474;11.106;2022-10-16T15:09:13;24.70;85.30
46356;DHT22;32066;49.474;11.106;2022-10-16T15:11:40;24.60;85.30
46356;DHT22;32066;49.474;11.106;2022-10-16T15:14:10;24.50;85.80
46356;DHT22;32066;49.474;11.106;2022-10-16T15:16:37;24.50;85.90
46356;DHT22;32066;49.474;11.106;2022-10-16T15:19:04;24.40;86.40
46356;DHT22;32066;49.474;11.106;2022-10-16T15:21:32;24.20;87.00
46356;DHT22;32066;49.474;11.106;2022-10-16T15:24:00;24.10;87.60
46356;DHT22;32066;49.474;11.106;2022-10-16T15:26:29;24.10;88.40
46356;DHT22;32066;49.474;11.106;2022-10-16T15:28:56;24.00;89.00
46356;DHT22;32066;49.474;11.106;2022-10-16T15:31:24;23.90;88.90
46356;DHT22;32066;49.474;11.106;2022-10-16T15:33:51;23.90;89.50